Soledad, California
Current Conditions -  °F | °C
As of 10:34 AM on Friday 28 Nov 2014 (Local Time) from KSNS Reporting Station
Haze Haze  
Wind Chill: 57°   Ceiling: Unl
Heat Index: 57°   Visibility: 2mi
Dew Point: 39°   Wind: 6mph
Humidity: 51%   Direction: 150°SSE
Pressure: 30.02"   Gusts: NA
Location:  36.43°N, 121.32°W
Report Text: KSNS 281834Z AUTO 15005KT 2SM HZ CLR 14/04 A3002 RMK AO2 TSNO
Loading
Personal Weather Stations






























Interactive Weather Map New forecast layout! Learn more

10-Day Weather Forecast

Advertisements
Track Severe Weather on mobile